Results For
Red Hills Triathlon

Tallahassee, FL 32309
Timing Services provided by . Questions About Results? Get in touch!

Use the filters boxes below to search results.

Interactive Version
Place DIVISION BIB Name               GENDER AGE CITY         STATE CHIP TIME CLOCK TIME SWIM  T1   BIKE    T2   RUN   PENALTY Pace Age        
                                                                                                                                    Percentage 
===== ======== === ================== ====== === ============ ===== ========= ========== ===== ==== ======= ==== ===== ======= ==== ========== 
1     MOVER    501 Ethan Bass         M      15  Monticello   FL    0:55:23   1:13:23    4:14  1:16 33:24   0:37 15:53              98.2       
2     M2529    541 Christain Griffith M      29  Tallahassee  FL    0:58:40   1:16:40    6:40  2:24 34:14   0:43 14:41              89.5       
3     FOVER    516 Kaylee Jones       F      13  Tallahassee  FL    1:02:47   1:20:47    4:35  2:15 36:33   0:40 18:47              106.4      
4     M2024    510 Ryan Erskine       M      23  Fort Benning GA    1:02:56   1:20:56    7:21  3:21 36:06   0:45 15:25              83.5       
5     F3034    525 Kat Sack           F      30  Tallahassee  FL    1:03:07   1:21:07    5:38  1:47 37:26   1:31 16:46              93.2       
6     M4549    502 Chris Coleman      M      49  Odessa       FL    1:03:38   1:21:38    7:44  2:29 34:09   1:22 17:57              91.8       
7     M4044    539 Kevin Winship      M      44  Tallahassee  FL    1:07:01   1:25:01    7:27  1:51 37:32   1:23 18:51              83.5       
8     M5054    531 Tim Templeton      M      53  Tallahassee  FL    1:07:03   1:25:03    8:06  2:28 36:21   1:17 18:53              90.2       
9     F3034    535 Lauren Wade        F      34  Tallahassee  FL    1:07:38   1:25:38    6:02  3:29 39:04   1:24 17:41              87.5       
10    F14UN    538 C. Wilcox          F      12  Tallahassee  FL    1:08:01   1:26:01    6:51  2:02 38:01   1:26 19:42              100.9      
11    M3539    506 Trey Dirks         M      38  Tallahassee  FL    1:08:18   1:26:18    7:30  2:12 39:52   0:37 18:08              78.4       
12    F2024    523 Leah Ritchey       F      23  Enterprise   AL    1:09:52   1:27:52    7:40  2:59 40:48   0:54 17:32              84.1       
13    M3034    524 Johnathan Roberts  M      33  Tallahassee  FL    1:11:25   1:29:25    8:37  2:50 39:54   1:10 18:56              73.7       
14    M3034    532 Gregory Thompson   M      31  Jacksonville FL    1:12:40   1:30:40    8:33  2:31 44:33   1:05 16:01              72.3       
15    F3034    522 Kelsey Reynolds    F      31  Jacksonville FL    1:12:43   1:30:43    7:22  3:44 40:36   1:48 19:15              80.9       
16    M1519    511 John Gay           M      17  Havana       FL    1:12:48   1:30:48    6:42  1:57 42:40   0:48 20:43              72.8       
17    M3034    533 Zachary Timko      M      30  Jacksonville FL    1:14:11   1:32:11    10:11 2:11 43:17   0:52 17:43              70.8       
18    F14UN    512 Fiona Haefner      F      13  Tallahassee  FL    1:14:18   1:32:18    5:00  1:59 44:43   0:42 21:57              89.9       
19    F6569    526 Judith Sheppard    F      65  Tallahassee  FL    1:14:22   1:32:22    9:11  2:47 38:12   2:12 22:02              108.5      
20    F3034    529 Janna Sowell       F      30  Tallahassee  FL    1:17:27   1:35:27    7:06  3:41 42:47   1:55 21:59              75.9       
21    F6064    505 Gretchen Deyoung   F      61  Tallahassee  FL    1:17:28   1:35:28    7:05  2:22 42:33   1:19 24:11              98.6       
22    F4044    515 Amanda Johnson     F      41  Tallahassee  FL    1:18:49   1:36:49    9:08  3:11 44:33   2:34 19:24              77.6       
23    F5559    536 Diane Walker       F      58  Tallahassee  FL    1:20:27   1:38:27    8:07  2:23 43:42   1:58 24:19              91.3       
24    F6569    527 Janet Simmons      F      65  Dothan       AL    1:23:22   1:41:22    8:13  4:11 43:26   2:11 25:22              96.8       
25    F5054    520 Robin McDougall    F      53  Tallahassee  FL    1:23:29   1:41:29    9:11  1:56 43:55   0:54 27:36              82.6       
26    F3539    534 Kera Twomey        F      37  Tallahassee  FL    1:25:30   1:43:30    7:15  1:23 47:58   1:40 27:16              70.0       
27    M5054    507 Michael Donahue    M      53  Tallahassee  FL    1:26:59   1:44:59    10:06 4:20              23:03              69.5       
28    M5054    542 Alan Hanstein      M      54  Tallahassee  FL    1:28:54   1:46:54    11:48 3:13              23:10              68.6       
29    M5559    537 Jimbo Walker       M      57  Tallahassee  FL    1:29:14   1:47:14    8:38  2:47 45:56   2:16 27:39 2:00         70.3       
30    M6569    517 Frank Kreis        M      67  Chipley      FL    1:30:17   1:48:17    12:13 4:23 44:51   1:46 27:05              76.5       
31    M3034    514 Evan Hughes        M      32  Dothan       AL    1:33:44   1:51:44    9:44  3:17 53:11   1:20 26:14              56.1       
32    F3034    528 Megan Soper        F      30  Tallahassee  FL    1:38:57   1:56:57    8:06  4:16 54:53   2:05 29:39              59.4       
33    F3539    508 Stacie Elliott     F      39  Tallahassee  FL    1:39:29   1:57:29    13:47 4:50 57:34   3:03 20:17              60.7       
34    F14UN    509 T. Elliott         F      10  Tallahassee  FL    1:39:29   1:57:29    13:51 4:48 57:33   3:01 20:18              73.3       
35    F4044    519 Kristen McCaskill  F      40  Cross City   FL    1:44:07   2:02:07    11:46 2:54 1:03:29 2:08 23:53              58.4       
36    F3034    513 Katie Hatcher      F      34  Cross City   FL    1:46:07   2:04:07    11:43 2:55 1:03:26 2:08 23:57 2:00         55.8       
37    F6064    504 Betty Dewar        F      63  Tallahassee  FL    1:46:29   2:04:29    12:03 5:12 55:13   1:43 32:19              73.7       

Additional results can be found at https://drcsports.com.

If you continue to use this site, you consent to use all cookies. We use cookies to offer you a better browsing experience. Read how we use cookies and how you can control them by visiting our Privacy Policy.

If you continue to use this site, you consent to use all cookies.